Terminal Aerodrome Forecast
Issued by NWS

Home | Current Version | Previous Version | Text Only | Print | Product List | Glossary On
Versions: 1 2 3 4 5 6 7 8 9 10 11 12 13 14 15 16
000
FTUS45 KSLC 231728
TAFLGU
TAF
KLGU 231728Z 2318/2418 24006KT P6SM SCT080 BKN120
     FM232200 32010KT P6SM VCSH SCT050 BKN080
     FM240300 VRB03KT P6SM SCT060 BKN100
     FM241100 22008KT P6SM VCSH SCT050 BKN100
     FM241600 24010KT P6SM -SHRA BKN060=

USA.gov is the U.S. government's official web portal to all federal, state and local government web resources and services.